Terminal Aerodrome Forecast
Issued by NWS Wilmington, OH

Current Version | Previous Version | Text Only | Print | Product List | Glossary Off
Versions: 1 2 3 4 5 6 7 8 9 10 11 12 13 14

000
FTUS41 KILN 042100 AAA
TAFDAY
TAF AMD
KDAY 042120Z 0421/0518 23008KT P6SM BKN100
     FM050100 22006KT P6SM VCTS BKN050CB OVC150
     FM050500 22007KT P6SM SCT070 BKN250
     FM050900 22007KT P6SM -SHRA BKN050 OVC120
     FM051300 23009KT P6SM SCT050 BKN120=

USA.gov is the U.S. government's official web portal to all federal, state and local government web resources and services.